createdAt,value
2022-09-28T00:01:26.139Z,2.65
2022-09-28T00:06:41.792Z,2.13
2022-09-28T00:09:50.175Z,2.60
2022-09-28T00:12:33.518Z,2.70
2022-09-28T00:15:03.865Z,2.15
2022-09-28T00:21:06.777Z,2.15
2022-09-28T00:23:34.220Z,2.20
2022-09-28T00:26:12.985Z,1.80
2022-09-28T00:29:11.107Z,1.70
2022-09-28T00:31:42.849Z,2.10
2022-09-28T00:34:13.789Z,2.13
2022-09-28T00:36:45.377Z,2.42
2022-09-28T00:39:14.663Z,1.45
2022-09-28T00:41:42.710Z,1.77
2022-09-28T00:44:24.721Z,1.63
2022-09-28T00:47:25.610Z,2.58
2022-09-28T00:50:05.947Z,1.80
2022-09-28T00:52:59.003Z,1.93
2022-09-28T00:55:39.787Z,1.60
2022-09-28T00:58:19.506Z,1.90
2022-09-28T01:01:16.889Z,1.98
2022-09-28T01:03:50.876Z,1.70
2022-09-28T01:10:22.593Z,1.73
2022-09-28T01:13:32.825Z,1.90
2022-09-28T01:20:04.619Z,2.05
2022-09-28T01:23:21.745Z,2.80
2022-09-28T01:27:01.877Z,1.90
2022-09-28T01:29:45.850Z,1.75
2022-09-28T01:32:36.599Z,2.30
2022-09-28T01:36:05.218Z,2.28
2022-09-28T01:42:02.193Z,2.30
2022-09-28T01:44:42.522Z,2.17
2022-09-28T01:47:22.380Z,2.90
2022-09-28T01:50:03.608Z,1.70
2022-09-28T01:55:47.097Z,2.55
2022-09-28T02:02:27.443Z,2.65
2022-09-28T02:05:03.811Z,3.25
2022-09-28T02:08:03.730Z,2.85
2022-09-28T02:10:47.549Z,2.45
2022-09-28T02:13:33.137Z,2.30
2022-09-28T02:16:36.242Z,2.65
2022-09-28T02:22:38.636Z,2.10
2022-09-28T02:25:34.729Z,2.55
2022-09-28T02:28:08.227Z,2.63
2022-09-28T02:30:41.264Z,2.50
2022-09-28T02:33:33.826Z,1.90
2022-09-28T02:36:19.422Z,2.08
2022-09-28T02:38:50.186Z,2.20
2022-09-28T02:41:39.890Z,2.30
2022-09-28T02:44:22.472Z,1.95
2022-09-28T02:47:51.027Z,2.53
2022-09-28T02:50:59.225Z,2.17
2022-09-28T02:53:58.869Z,2.05
2022-09-28T02:56:47.052Z,1.90
2022-09-28T03:02:58.756Z,1.98
2022-09-28T03:05:50.246Z,1.90
2022-09-28T03:08:49.674Z,2.28
2022-09-28T03:11:35.546Z,2.40
2022-09-28T03:14:03.402Z,1.90
2022-09-28T03:16:32.138Z,2.70
2022-09-28T03:21:56.008Z,2.30
2022-09-28T03:24:47.708Z,2.85
2022-09-28T03:27:51.318Z,1.75
2022-09-28T03:30:28.406Z,2.05
2022-09-28T03:33:10.237Z,2.58
2022-09-28T03:35:36.890Z,2.90
2022-09-28T03:38:06.422Z,2.10
2022-09-28T03:40:33.071Z,2.50
2022-09-28T03:43:05.826Z,2.42
2022-09-28T03:45:36.777Z,2.55
2022-09-28T03:48:13.441Z,2.35
2022-09-28T03:50:40.988Z,2.13
2022-09-28T03:53:08.040Z,2.42
2022-09-28T03:55:36.191Z,2.70
2022-09-28T04:00:50.193Z,2.30
2022-09-28T04:03:22.237Z,2.63
2022-09-28T04:05:56.111Z,3.10
2022-09-28T04:08:22.676Z,2.35
2022-09-28T04:10:49.230Z,3.13
2022-09-28T04:13:15.892Z,2.70
2022-09-28T04:15:43.503Z,3.15
2022-09-28T04:18:17.121Z,3.17
2022-09-28T04:20:48.143Z,2.85
2022-09-28T04:23:25.947Z,3.13
2022-09-28T04:26:06.971Z,2.80
2022-09-28T04:28:52.444Z,3.35
2022-09-28T04:31:23.796Z,3.40
2022-09-28T04:33:51.976Z,4.72
2022-09-28T04:36:22.133Z,4.80
2022-09-28T04:38:53.194Z,4.60
2022-09-28T04:41:22.522Z,4.18
2022-09-28T04:43:49.919Z,4.22
2022-09-28T04:46:29.729Z,3.20
2022-09-28T04:49:03.806Z,4.00
2022-09-28T04:51:39.521Z,2.60
2022-09-28T04:54:15.096Z,3.53
2022-09-28T04:56:41.898Z,2.58
2022-09-28T04:59:14.711Z,7.65
2022-09-28T05:02:05.291Z,7.63
2022-09-28T05:04:32.061Z,9.05
2022-09-28T05:07:04.323Z,9.45
2022-09-28T05:09:41.118Z,15.95
2022-09-28T05:12:09.781Z,14.00
2022-09-28T05:14:36.310Z,12.55
2022-09-28T05:17:12.554Z,12.27
2022-09-28T05:19:41.939Z,11.40
2022-09-28T05:22:15.707Z,9.98
2022-09-28T05:25:09.290Z,8.52
2022-09-28T05:27:44.828Z,6.00
2022-09-28T05:30:19.588Z,4.43
2022-09-28T05:32:52.714Z,5.15
2022-09-28T05:35:19.446Z,5.28
2022-09-28T05:37:49.851Z,4.78
2022-09-28T05:40:17.208Z,4.43
2022-09-28T05:42:43.830Z,4.13
2022-09-28T05:45:10.995Z,4.35
2022-09-28T05:47:48.886Z,6.70
2022-09-28T05:50:21.054Z,5.18
2022-09-28T05:52:51.643Z,5.47
2022-09-28T05:55:18.213Z,7.07
2022-09-28T05:57:44.860Z,5.75
2022-09-28T06:00:20.412Z,6.40
2022-09-28T06:03:08.081Z,4.82
2022-09-28T06:05:52.091Z,4.10
2022-09-28T06:11:46.980Z,4.10
2022-09-28T06:14:23.076Z,4.45
2022-09-28T06:16:50.294Z,4.35
2022-09-28T06:22:17.415Z,3.55
2022-09-28T06:24:44.039Z,3.92
2022-09-28T06:30:53.713Z,3.60
2022-09-28T06:36:30.258Z,3.67
2022-09-28T06:39:07.209Z,4.95
2022-09-28T06:42:09.648Z,4.55
2022-09-28T06:45:09.328Z,5.13
2022-09-28T06:47:56.992Z,6.07
2022-09-28T06:50:43.095Z,6.63
2022-09-28T06:53:18.549Z,6.28
2022-09-28T06:55:51.862Z,8.07
2022-09-28T06:58:20.830Z,6.82
2022-09-28T07:00:59.397Z,6.93
2022-09-28T07:03:34.141Z,6.85
2022-09-28T07:06:12.918Z,5.03
2022-09-28T07:08:56.561Z,3.72
2022-09-28T07:11:44.925Z,4.05
2022-09-28T07:14:28.002Z,3.60
2022-09-28T07:17:13.056Z,3.88
2022-09-28T07:22:41.179Z,4.70
2022-09-28T07:25:27.483Z,7.50
2022-09-28T07:28:11.045Z,8.10
2022-09-28T07:30:56.611Z,5.75
2022-09-28T07:33:34.576Z,5.95
2022-09-28T07:36:15.817Z,4.45
2022-09-28T07:38:45.261Z,4.28
2022-09-28T07:41:24.021Z,4.55
2022-09-28T07:44:37.963Z,4.15
2022-09-28T07:47:11.937Z,4.20
2022-09-28T07:50:21.381Z,3.75
2022-09-28T07:52:53.229Z,3.45
2022-09-28T07:55:21.387Z,3.88
2022-09-28T07:57:54.339Z,3.28
2022-09-28T08:00:34.227Z,3.90
2022-09-28T08:03:04.266Z,4.10
2022-09-28T08:05:39.432Z,4.18
2022-09-28T08:08:12.230Z,3.92
2022-09-28T08:10:43.378Z,4.20
2022-09-28T08:13:12.445Z,3.65
2022-09-28T08:15:39.128Z,4.60
2022-09-28T08:18:06.114Z,3.38
2022-09-28T08:20:52.140Z,3.20
2022-09-28T08:23:20.347Z,3.67
2022-09-28T08:25:49.163Z,3.95
2022-09-28T08:28:18.013Z,3.97
2022-09-28T08:30:49.082Z,4.10
2022-09-28T08:35:59.890Z,3.45
2022-09-28T08:38:28.344Z,3.60
2022-09-28T08:41:16.777Z,4.65
2022-09-28T08:44:08.254Z,3.95
2022-09-28T08:46:45.513Z,3.85
2022-09-28T08:49:36.351Z,3.95
2022-09-28T08:52:23.236Z,3.25
2022-09-28T08:55:26.731Z,4.03
2022-09-28T08:58:02.883Z,3.63
2022-09-28T09:00:50.863Z,3.05
2022-09-28T09:03:42.893Z,3.70
2022-09-28T09:06:32.359Z,3.60
2022-09-28T09:09:28.004Z,3.78
2022-09-28T09:12:16.815Z,3.47
2022-09-28T09:15:13.493Z,3.80
2022-09-28T09:21:31.188Z,4.22
2022-09-28T09:27:57.199Z,4.57
2022-09-28T09:30:31.311Z,4.15
2022-09-28T09:33:41.835Z,3.63
2022-09-28T09:36:42.560Z,3.38
2022-09-28T09:42:57.307Z,3.33
2022-09-28T09:45:58.944Z,3.58
2022-09-28T09:48:39.093Z,4.22
2022-09-28T09:51:34.795Z,3.05
2022-09-28T09:54:31.086Z,3.95
2022-09-28T09:57:31.130Z,4.82
2022-09-28T10:00:02.980Z,3.92
2022-09-28T10:02:44.923Z,3.58
2022-09-28T10:05:53.653Z,3.97
2022-09-28T10:08:46.791Z,3.63
2022-09-28T10:11:22.830Z,4.13
2022-09-28T10:14:03.197Z,2.83
2022-09-28T10:16:40.805Z,3.22
2022-09-28T10:19:16.103Z,3.70
2022-09-28T10:21:55.321Z,3.08
2022-09-28T10:24:58.743Z,2.47
2022-09-28T10:27:45.122Z,3.25
2022-09-28T10:30:27.155Z,3.90
2022-09-28T10:33:04.107Z,2.58
2022-09-28T10:36:06.131Z,3.25
2022-09-28T10:38:38.744Z,2.90
2022-09-28T10:41:24.281Z,3.38
2022-09-28T10:44:25.091Z,3.45
2022-09-28T10:47:09.342Z,3.58
2022-09-28T10:50:00.152Z,2.85
2022-09-28T10:52:56.291Z,2.95
2022-09-28T10:55:36.477Z,2.28
2022-09-28T10:58:26.230Z,2.80
2022-09-28T11:01:13.914Z,2.92
2022-09-28T11:04:08.778Z,2.45
2022-09-28T11:06:41.404Z,3.85
2022-09-28T11:09:52.900Z,2.50
2022-09-28T11:12:28.766Z,2.67
2022-09-28T11:15:18.418Z,2.38
2022-09-28T11:17:49.738Z,2.92
2022-09-28T11:20:28.211Z,2.88
2022-09-28T11:23:02.716Z,2.85
2022-09-28T11:25:42.094Z,2.55
2022-09-28T11:28:38.197Z,2.60
2022-09-28T11:31:14.897Z,2.08
2022-09-28T11:33:53.478Z,2.20
2022-09-28T11:37:00.957Z,2.38
2022-09-28T11:39:43.631Z,2.63
2022-09-28T11:45:55.117Z,2.30
2022-09-28T11:48:39.330Z,2.20
2022-09-28T11:51:18.832Z,2.53
2022-09-28T11:54:02.948Z,2.40
2022-09-28T11:56:39.599Z,2.38
2022-09-28T11:59:18.273Z,2.47
2022-09-28T12:05:20.520Z,2.67
2022-09-28T12:08:02.502Z,2.40
2022-09-28T12:11:09.641Z,2.25
2022-09-28T12:13:44.787Z,2.03
2022-09-28T12:17:00.944Z,2.22
2022-09-28T12:19:32.340Z,2.42
2022-09-28T12:22:11.339Z,2.28
2022-09-28T12:24:43.150Z,2.17
2022-09-28T12:30:34.587Z,2.28
2022-09-28T12:33:51.255Z,2.55
2022-09-28T12:36:20.870Z,2.45
2022-09-28T12:39:40.974Z,2.20
2022-09-28T12:42:33.286Z,2.40
2022-09-28T12:45:30.943Z,2.42
2022-09-28T12:48:35.477Z,2.45
2022-09-28T12:51:47.622Z,2.75
2022-09-28T12:54:52.607Z,2.22
2022-09-28T12:57:51.253Z,2.75
2022-09-28T13:00:26.212Z,2.75
2022-09-28T13:06:05.419Z,2.45
2022-09-28T13:08:56.584Z,2.40
2022-09-28T13:14:31.473Z,1.88
2022-09-28T13:17:08.716Z,2.10
2022-09-28T13:20:19.442Z,2.00
2022-09-28T13:23:09.142Z,1.85
2022-09-28T13:26:12.036Z,2.28
2022-09-28T13:28:49.604Z,2.08
2022-09-28T13:31:37.177Z,2.05
2022-09-28T13:37:36.701Z,2.30
2022-09-28T13:40:06.749Z,1.60
2022-09-28T13:43:03.131Z,2.45
2022-09-28T13:46:35.322Z,1.90
2022-09-28T13:49:22.879Z,2.40
2022-09-28T13:52:49.488Z,2.40
2022-09-28T13:55:40.118Z,2.30
2022-09-28T13:58:25.450Z,2.90
2022-09-28T14:01:10.468Z,2.20
2022-09-28T14:03:38.020Z,2.25
2022-09-28T14:06:53.516Z,1.85
2022-09-28T14:09:49.757Z,2.05
2022-09-28T14:12:52.239Z,2.42
2022-09-28T14:15:45.229Z,2.30
2022-09-28T14:19:09.994Z,2.03
2022-09-28T14:22:16.263Z,2.00
2022-09-28T14:25:23.368Z,2.47
2022-09-28T14:28:29.315Z,1.98
2022-09-28T14:31:34.414Z,1.95
2022-09-28T14:34:13.742Z,1.83
2022-09-28T14:37:09.665Z,1.95
2022-09-28T14:43:30.644Z,1.88
2022-09-28T14:46:21.000Z,2.50
2022-09-28T14:48:51.799Z,1.90
2022-09-28T14:51:32.134Z,2.05
2022-09-28T14:54:41.056Z,1.80
2022-09-28T14:57:39.981Z,2.00
2022-09-28T15:00:38.453Z,1.90
2022-09-28T15:06:35.097Z,1.83
2022-09-28T15:09:04.701Z,2.13
2022-09-28T15:11:44.651Z,1.67
2022-09-28T15:14:17.008Z,2.10
2022-09-28T15:17:01.424Z,1.80
2022-09-28T15:20:00.238Z,1.60
2022-09-28T15:22:36.258Z,2.00
2022-09-28T15:25:29.275Z,2.63
2022-09-28T15:28:19.226Z,2.00
2022-09-28T15:31:05.273Z,1.60
2022-09-28T15:33:59.307Z,1.80
2022-09-28T15:39:23.502Z,1.75
2022-09-28T15:42:05.669Z,1.70
2022-09-28T15:44:46.182Z,1.85
2022-09-28T15:47:28.362Z,1.65
2022-09-28T15:50:27.112Z,2.03
2022-09-28T15:53:26.356Z,1.70
2022-09-28T15:56:10.403Z,2.10
2022-09-28T15:58:46.693Z,1.75
2022-09-28T16:01:39.290Z,1.92
2022-09-28T16:04:47.793Z,1.50
2022-09-28T16:07:52.618Z,1.60
2022-09-28T16:10:33.548Z,1.65
2022-09-28T16:13:38.435Z,1.80
2022-09-28T16:16:26.491Z,1.80
2022-09-28T16:18:58.399Z,1.55
2022-09-28T16:21:49.356Z,1.88
2022-09-28T16:24:48.931Z,1.70
2022-09-28T16:27:40.140Z,1.98
2022-09-28T16:35:56.798Z,1.85
2022-09-28T16:38:26.132Z,1.70
2022-09-28T16:41:09.954Z,2.17
2022-09-28T16:43:51.330Z,2.00
2022-09-28T16:49:24.358Z,2.08
2022-09-28T16:52:03.338Z,1.88
2022-09-28T16:54:57.333Z,1.95
2022-09-28T16:57:32.707Z,2.10
2022-09-28T17:00:04.359Z,1.95
2022-09-28T17:02:46.158Z,1.80
2022-09-28T17:05:23.229Z,2.05
2022-09-28T17:08:07.161Z,1.73
2022-09-28T17:11:24.189Z,1.83
2022-09-28T17:14:10.238Z,1.95
2022-09-28T17:17:56.150Z,1.70
2022-09-28T17:19:59.390Z,1.52
2022-09-28T17:22:39.461Z,2.65
2022-09-28T17:25:19.689Z,2.05
2022-09-28T17:28:00.592Z,2.43
2022-09-28T17:30:36.414Z,2.63
2022-09-28T17:33:07.483Z,2.70
2022-09-28T17:38:24.714Z,3.30
2022-09-28T17:41:06.021Z,3.30
2022-09-28T17:43:49.768Z,3.58
2022-09-28T17:46:42.874Z,2.72
2022-09-28T17:49:15.972Z,2.80
2022-09-28T17:51:53.111Z,2.42
2022-09-28T17:54:30.748Z,2.08
2022-09-28T17:59:44.048Z,1.98
2022-09-28T18:02:18.281Z,2.00
2022-09-28T18:04:54.176Z,2.40
2022-09-28T18:07:25.652Z,2.00
2022-09-28T18:10:22.960Z,1.92
2022-09-28T18:12:59.051Z,1.80
2022-09-28T18:15:50.861Z,1.58
2022-09-28T18:18:18.918Z,2.33
2022-09-28T18:23:42.381Z,1.90
2022-09-28T18:26:29.931Z,2.03
2022-09-28T18:29:04.502Z,1.70
2022-09-28T18:31:40.082Z,1.88
2022-09-28T18:34:32.197Z,1.75
2022-09-28T18:37:08.339Z,1.98
2022-09-28T18:39:48.061Z,2.00
2022-09-28T18:42:26.675Z,2.05
2022-09-28T18:45:01.074Z,2.13
2022-09-28T18:47:27.934Z,1.23
2022-09-28T18:49:54.495Z,2.78
2022-09-28T18:52:21.327Z,2.78
2022-09-28T18:54:50.231Z,2.58
2022-09-28T18:57:17.212Z,3.80
2022-09-28T19:00:10.463Z,3.60
2022-09-28T19:02:44.715Z,4.93
2022-09-28T19:05:20.880Z,6.25
2022-09-28T19:07:50.351Z,5.28
2022-09-28T19:10:34.266Z,5.13
2022-09-28T19:13:15.752Z,5.38
2022-09-28T19:15:45.977Z,5.53
2022-09-28T19:18:22.094Z,5.68
2022-09-28T19:21:07.432Z,5.75
2022-09-28T19:23:48.952Z,6.03
2022-09-28T19:26:20.436Z,4.13
2022-09-28T19:28:51.075Z,3.75
2022-09-28T19:31:23.337Z,3.58
2022-09-28T19:33:56.555Z,3.10
2022-09-28T19:36:25.623Z,2.72
2022-09-28T19:38:53.180Z,2.47
2022-09-28T19:41:43.435Z,3.10
2022-09-28T19:44:21.651Z,3.08
2022-09-28T19:47:10.839Z,2.70
2022-09-28T19:50:06.381Z,1.90
2022-09-28T19:52:35.341Z,2.40
2022-09-28T19:55:11.994Z,2.60
2022-09-28T19:57:51.186Z,2.15
2022-09-28T20:00:39.960Z,2.42
2022-09-28T20:03:22.238Z,1.83
2022-09-28T20:05:49.362Z,2.13
2022-09-28T20:08:16.459Z,2.20
2022-09-28T20:10:52.370Z,2.65
2022-09-28T20:13:20.212Z,2.67
2022-09-28T20:16:05.697Z,2.38
2022-09-28T20:18:43.527Z,2.42
2022-09-28T20:21:26.932Z,2.10
2022-09-28T20:23:58.214Z,2.13
2022-09-28T20:31:49.067Z,2.00
2022-09-28T20:34:31.905Z,2.42
2022-09-28T20:36:58.510Z,2.53
2022-09-28T20:40:00.712Z,2.53
2022-09-28T20:42:33.434Z,2.03
2022-09-28T20:45:07.455Z,2.15
2022-09-28T20:47:43.902Z,2.72
2022-09-28T20:50:14.107Z,2.67
2022-09-28T20:52:50.170Z,2.67
2022-09-28T20:55:25.867Z,3.08
2022-09-28T20:58:08.649Z,2.53
2022-09-28T21:00:36.607Z,2.30
2022-09-28T21:06:16.489Z,2.05
2022-09-28T21:08:49.678Z,1.98
2022-09-28T21:14:13.429Z,2.22
2022-09-28T21:16:50.271Z,2.42
2022-09-28T21:19:24.994Z,2.20
2022-09-28T21:21:54.922Z,2.00
2022-09-28T21:24:22.960Z,2.13
2022-09-28T21:27:00.272Z,2.03
2022-09-28T21:29:31.664Z,1.80
2022-09-28T21:32:00.806Z,2.25
2022-09-28T21:34:46.327Z,2.78
2022-09-28T21:37:23.007Z,2.47
2022-09-28T21:39:50.999Z,3.67
2022-09-28T21:42:18.083Z,4.30
2022-09-28T21:45:01.074Z,4.50
2022-09-28T21:47:50.173Z,4.47
2022-09-28T21:50:22.847Z,5.18
2022-09-28T21:52:59.412Z,5.03
2022-09-28T21:55:42.391Z,4.13
2022-09-28T21:58:19.668Z,4.28
2022-09-28T22:03:52.233Z,4.10
2022-09-28T22:06:29.458Z,4.40
2022-09-28T22:08:57.483Z,3.95
2022-09-28T22:11:35.920Z,3.60
2022-09-28T22:14:19.432Z,4.00
2022-09-28T22:17:25.342Z,3.40
2022-09-28T22:20:11.227Z,3.33
2022-09-28T22:22:39.811Z,3.88
2022-09-28T22:28:19.234Z,4.72
2022-09-28T22:31:00.254Z,4.53
2022-09-28T22:33:59.156Z,4.25
2022-09-28T22:36:47.938Z,4.45
2022-09-28T22:39:14.727Z,3.92
2022-09-28T22:41:52.050Z,4.07
2022-09-28T22:44:34.025Z,3.92
2022-09-28T22:47:02.962Z,3.50
2022-09-28T22:49:32.754Z,4.00
2022-09-28T22:52:02.822Z,3.30
2022-09-28T22:54:38.464Z,3.90
2022-09-28T22:57:10.326Z,4.15
2022-09-28T23:00:15.923Z,6.60
2022-09-28T23:05:23.643Z,6.45
2022-09-28T23:10:53.319Z,6.05
2022-09-28T23:14:19.577Z,5.35
2022-09-28T23:16:52.621Z,5.50
2022-09-28T23:19:19.499Z,6.10
2022-09-28T23:21:50.114Z,5.45
2022-09-28T23:24:31.607Z,6.13
2022-09-28T23:26:58.254Z,6.22
2022-09-28T23:29:29.366Z,4.93
2022-09-28T23:31:58.480Z,5.35
2022-09-28T23:34:29.062Z,5.75
2022-09-28T23:37:04.281Z,5.05
2022-09-28T23:39:35.519Z,6.05
2022-09-28T23:42:07.278Z,4.88
2022-09-28T23:44:33.822Z,5.25
2022-09-28T23:47:00.417Z,4.35
2022-09-28T23:49:27.002Z,5.13
2022-09-28T23:51:56.042Z,5.18
2022-09-28T23:54:38.753Z,5.05
2022-09-28T23:59:59.278Z,4.78
